Time;durP1;ratioP1;P1;durP2;ratioP2;P2;SDS_P1;SDS_P2;PMS_P1;PMS_P2;Temp;Humidity;BMP_temperature;BMP_pressure;BME280_temperature;BME280_humidity;BME280_pressure;Samples;Min_cycle;Max_cycle;Signal;HPM_P1;HPM_P2
2022/11/24 00:01:38;;;;;;;0.00;0.00;;;;;;;;;;4992080;28;20128;-86
2022/11/24 00:04:05;;;;;;;0.00;0.00;;;;;;;;;;4991979;28;20073;-86
2022/11/24 00:06:32;;;;;;;0.00;0.00;;;;;;;;;;4991978;28;20050;-86
2022/11/24 00:08:58;;;;;;;0.10;0.00;;;;;;;;;;4991666;28;20077;-86
2022/11/24 00:11:26;;;;;;;0.00;0.00;;;;;;;;;;4992176;28;20030;-85
2022/11/24 00:13:52;;;;;;;0.00;0.00;;;;;;;;;;4975834;28;20039;-86
2022/11/24 00:16:22;;;;;;;0.00;0.00;;;;;;;;;;4975851;28;20129;-86
2022/11/24 00:18:50;;;;;;;0.00;0.00;;;;;;;;;;4994192;28;20415;-86
2022/11/24 00:21:16;;;;;;;0.00;0.00;;;;;;;;;;4995575;28;20039;-85
2022/11/24 00:23:43;;;;;;;0.00;0.00;;;;;;;;;;4995533;28;20100;-86
2022/11/24 00:26:10;;;;;;;0.00;0.00;;;;;;;;;;4995436;28;20129;-85
2022/11/24 00:28:37;;;;;;;0.00;0.00;;;;;;;;;;4978779;28;20082;-85
2022/11/24 00:31:04;;;;;;;0.00;0.00;;;;;;;;;;4995374;28;20045;-86
2022/11/24 00:33:30;;;;;;;0.05;0.00;;;;;;;;;;4995045;28;20538;-86
2022/11/24 00:35:57;;;;;;;0.00;0.00;;;;;;;;;;4995352;28;20487;-84
2022/11/24 00:38:23;;;;;;;0.00;0.00;;;;;;;;;;4995266;28;20034;-85
2022/11/24 00:40:50;;;;;;;0.00;0.00;;;;;;;;;;4994987;28;20538;-85
2022/11/24 00:43:16;;;;;;;0.00;0.00;;;;;;;;;;4995281;28;20042;-85
2022/11/24 00:45:42;;;;;;;0.00;0.00;;;;;;;;;;4978694;28;20039;-86
2022/11/24 00:48:08;;;;;;;0.00;0.00;;;;;;;;;;4994872;28;20050;-86
2022/11/24 00:50:34;;;;;;;0.00;0.00;;;;;;;;;;4994799;28;20089;-85
2022/11/24 00:53:01;;;;;;;0.35;0.10;;;;;;;;;;4995091;28;20034;-85
2022/11/24 00:55:27;;;;;;;0.00;0.00;;;;;;;;;;4994800;28;20125;-86
2022/11/24 00:57:53;;;;;;;0.00;0.00;;;;;;;;;;4994716;28;20125;-85
2022/11/24 01:00:19;;;;;;;0.00;0.00;;;;;;;;;;4994739;28;20468;-87
2022/11/24 01:02:45;;;;;;;0.00;0.00;;;;;;;;;;4994788;28;20121;-85
2022/11/24 01:05:11;;;;;;;0.00;0.00;;;;;;;;;;4994560;28;20133;-86
2022/11/24 01:07:37;;;;;;;0.00;0.00;;;;;;;;;;4994715;28;20129;-87
2022/11/24 01:10:03;;;;;;;0.00;0.00;;;;;;;;;;4994486;28;20399;-87
2022/11/24 01:12:30;;;;;;;0.00;0.00;;;;;;;;;;4994571;28;20038;-85
2022/11/24 01:14:56;;;;;;;0.00;0.00;;;;;;;;;;4994373;28;20387;-85
2022/11/24 01:17:22;;;;;;;0.00;0.00;;;;;;;;;;4978345;28;20043;-86
2022/11/24 01:19:48;;;;;;;0.00;0.00;;;;;;;;;;4978088;28;20042;-85
2022/11/24 01:22:14;;;;;;;0.00;0.00;;;;;;;;;;4994681;28;20202;-86
2022/11/24 01:24:40;;;;;;;0.00;0.00;;;;;;;;;;4978087;28;20050;-85
2022/11/24 01:27:06;;;;;;;0.00;0.00;;;;;;;;;;4994689;28;20125;-86
2022/11/24 01:29:32;;;;;;;0.00;0.00;;;;;;;;;;4977805;28;20066;-86
2022/11/24 01:31:58;;;;;;;0.00;0.00;;;;;;;;;;4994327;28;20073;-85
2022/11/24 01:34:24;;;;;;;0.00;0.00;;;;;;;;;;4977954;28;20486;-86
2022/11/24 01:36:50;;;;;;;0.00;0.00;;;;;;;;;;4994242;28;20041;-86
2022/11/24 01:39:16;;;;;;;0.00;0.00;;;;;;;;;;4993846;28;20439;-86
2022/11/24 01:41:42;;;;;;;0.00;0.00;;;;;;;;;;4994313;28;20038;-86
2022/11/24 01:44:25;;;;;;;0.00;0.00;;;;;;;;;;4993983;28;20466;-85
2022/11/24 01:47:02;;;;;;;0.00;0.00;;;;;;;;;;4994379;28;20043;-85
2022/11/24 01:49:40;;;;;;;0.00;0.00;;;;;;;;;;4993888;28;20610;-86
2022/11/24 01:52:08;;;;;;;0.00;0.00;;;;;;;;;;4993987;28;20492;-85
2022/11/24 01:54:55;;;;;;;0.00;0.00;;;;;;;;;;4994090;28;20373;-84
2022/11/24 01:57:26;;;;;;;0.00;0.00;;;;;;;;;;4994020;28;20053;-85
2022/11/24 01:59:55;;;;;;;0.00;0.00;;;;;;;;;;4993379;28;20071;-85
2022/11/24 02:02:21;;;;;;;0.00;0.00;;;;;;;;;;4993911;28;20046;-86
2022/11/24 02:04:48;;;;;;;0.00;0.00;;;;;;;;;;4993580;28;20042;-86
2022/11/24 02:07:14;;;;;;;0.00;0.00;;;;;;;;;;4977283;28;20043;-85
2022/11/24 02:09:42;;;;;;;0.00;0.00;;;;;;;;;;4993401;28;20042;-85
2022/11/24 02:12:09;;;;;;;0.00;0.00;;;;;;;;;;4977784;28;20038;-85
2022/11/24 02:14:37;;;;;;;0.00;0.00;;;;;;;;;;4993792;28;20042;-86
2022/11/24 02:17:03;;;;;;;0.00;0.00;;;;;;;;;;4993717;28;20459;-86
2022/11/24 02:19:38;;;;;;;0.00;0.00;;;;;;;;;;4993438;28;20511;-86
2022/11/24 02:22:04;;;;;;;0.00;0.00;;;;;;;;;;4993424;28;20049;-85
2022/11/24 02:24:43;;;;;;;0.00;0.00;;;;;;;;;;4993189;28;20046;-86
2022/11/24 02:27:09;;;;;;;0.00;0.00;;;;;;;;;;4993327;28;20108;-85
2022/11/24 02:29:35;;;;;;;0.00;0.00;;;;;;;;;;4992951;28;20042;-86
2022/11/24 02:32:04;;;;;;;0.00;0.00;;;;;;;;;;4993267;28;20038;-85
2022/11/24 02:34:30;;;;;;;0.00;0.00;;;;;;;;;;4976710;28;20049;-85
2022/11/24 02:36:56;;;;;;;0.00;0.00;;;;;;;;;;4992917;28;20042;-86
2022/11/24 02:39:22;;;;;;;0.00;0.00;;;;;;;;;;4993059;28;20456;-85
2022/11/24 02:41:56;;;;;;;0.00;0.00;;;;;;;;;;4992224;28;20046;-87
2022/11/24 02:44:24;;;;;;;0.00;0.00;;;;;;;;;;4992904;28;20108;-85
2022/11/24 02:47:00;;;;;;;0.00;0.00;;;;;;;;;;4992708;28;20074;-86
2022/11/24 02:49:26;;;;;;;0.00;0.00;;;;;;;;;;4992967;28;20038;-85
2022/11/24 02:51:52;;;;;;;0.00;0.00;;;;;;;;;;4992661;28;20126;-85
2022/11/24 02:54:18;;;;;;;0.00;0.00;;;;;;;;;;4976625;28;20043;-87
2022/11/24 02:56:44;;;;;;;0.00;0.00;;;;;;;;;;4992554;28;20515;-87
2022/11/24 02:59:10;;;;;;;0.00;0.00;;;;;;;;;;4992584;28;20145;-85
2022/11/24 03:01:36;;;;;;;0.00;0.00;;;;;;;;;;4976142;28;20042;-86
2022/11/24 03:04:02;;;;;;;0.00;0.00;;;;;;;;;;4992525;28;20100;-85
2022/11/24 03:06:28;;;;;;;0.00;0.00;;;;;;;;;;4992720;28;20479;-85
2022/11/24 03:08:54;;;;;;;0.00;0.00;;;;;;;;;;4992429;28;20082;-87
2022/11/24 03:11:20;;;;;;;0.00;0.00;;;;;;;;;;4992321;28;20121;-86
2022/11/24 03:13:46;;;;;;;0.00;0.00;;;;;;;;;;4976384;28;20042;-86
2022/11/24 03:16:12;;;;;;;0.00;0.00;;;;;;;;;;4992318;28;20034;-85
2022/11/24 03:18:38;;;;;;;0.00;0.00;;;;;;;;;;4992424;28;20096;-86
2022/11/24 03:21:04;;;;;;;0.00;0.00;;;;;;;;;;4992321;28;20103;-86
2022/11/24 03:23:30;;;;;;;0.00;0.00;;;;;;;;;;4992382;28;20038;-86
2022/11/24 03:26:06;;;;;;;0.00;0.00;;;;;;;;;;4992137;28;20049;-86
2022/11/24 03:28:32;;;;;;;0.00;0.00;;;;;;;;;;4992089;28;20046;-85
2022/11/24 03:30:58;;;;;;;0.00;0.00;;;;;;;;;;4992230;28;20041;-85
2022/11/24 03:33:24;;;;;;;0.00;0.00;;;;;;;;;;4992294;28;20038;-86
2022/11/24 03:35:50;;;;;;;0.00;0.00;;;;;;;;;;4992216;28;20038;-86
2022/11/24 03:38:16;;;;;;;0.00;0.00;;;;;;;;;;4992298;28;20041;-85
2022/11/24 03:40:42;;;;;;;0.00;0.00;;;;;;;;;;4992167;28;20078;-85
2022/11/24 03:43:09;;;;;;;0.00;0.00;;;;;;;;;;4992583;28;20296;-86
2022/11/24 03:45:35;;;;;;;0.00;0.00;;;;;;;;;;4992130;28;20137;-85
2022/11/24 03:48:01;;;;;;;0.00;0.00;;;;;;;;;;4992051;28;20134;-85
2022/11/24 03:50:28;;;;;;;0.00;0.00;;;;;;;;;;4991890;28;20053;-85
2022/11/24 03:52:54;;;;;;;0.00;0.00;;;;;;;;;;4995185;28;20046;-85
2022/11/24 03:55:20;;;;;;;0.00;0.00;;;;;;;;;;4979791;28;20034;-86
2022/11/24 03:57:46;;;;;;;0.00;0.00;;;;;;;;;;4995660;28;20121;-85
2022/11/24 04:00:12;;;;;;;0.00;0.00;;;;;;;;;;4996002;28;20070;-86
2022/11/24 04:02:38;;;;;;;0.00;0.00;;;;;;;;;;4995951;28;20514;-85
2022/11/24 04:05:05;;;;;;;0.00;0.00;;;;;;;;;;4996313;28;20042;-85
2022/11/24 04:07:31;;;;;;;0.00;0.00;;;;;;;;;;4995673;28;20042;-86
2022/11/24 04:09:57;;;;;;;0.00;0.00;;;;;;;;;;4995670;28;20038;-86
2022/11/24 04:15:08;;;;;;;0.00;0.00;;;;;;;;;;4995808;28;20515;-86
2022/11/24 04:17:34;;;;;;;0.00;0.00;;;;;;;;;;4996080;28;20360;-85
2022/11/24 04:20:00;;;;;;;0.00;0.00;;;;;;;;;;4995788;28;20042;-85
2022/11/24 04:22:26;;;;;;;0.00;0.00;;;;;;;;;;4979307;28;20042;-85
2022/11/24 04:24:52;;;;;;;0.00;0.00;;;;;;;;;;4995425;28;20197;-85
2022/11/24 04:27:18;;;;;;;0.00;0.00;;;;;;;;;;4979030;28;20046;-85
2022/11/24 04:29:44;;;;;;;0.00;0.00;;;;;;;;;;4995356;28;20039;-85
2022/11/24 04:32:10;;;;;;;0.00;0.00;;;;;;;;;;4979019;28;20467;-85
2022/11/24 04:34:36;;;;;;;0.00;0.00;;;;;;;;;;4995260;28;20042;-86
2022/11/24 04:37:02;;;;;;;0.00;0.00;;;;;;;;;;4995044;28;20451;-84
2022/11/24 04:39:28;;;;;;;0.00;0.00;;;;;;;;;;4995174;28;20093;-85
2022/11/24 04:41:54;;;;;;;0.00;0.00;;;;;;;;;;4994959;28;20042;-84
2022/11/24 04:44:20;;;;;;;0.00;0.00;;;;;;;;;;4995483;28;20053;-85
2022/11/24 04:46:45;;;;;;;0.00;0.00;;;;;;;;;;4994840;28;20049;-85
2022/11/24 04:49:11;;;;;;;0.00;0.00;;;;;;;;;;4978789;28;20046;-85
2022/11/24 04:51:38;;;;;;;0.00;0.00;;;;;;;;;;4994740;28;20074;-84
2022/11/24 04:54:05;;;;;;;0.00;0.00;;;;;;;;;;4995014;28;20117;-85
2022/11/24 04:56:31;;;;;;;0.00;0.00;;;;;;;;;;4978416;28;20510;-85
2022/11/24 04:58:57;;;;;;;0.00;0.00;;;;;;;;;;4994661;28;20495;-85
2022/11/24 05:01:23;;;;;;;0.00;0.00;;;;;;;;;;4994820;28;20050;-84
2022/11/24 05:03:49;;;;;;;0.00;0.00;;;;;;;;;;4978210;28;20054;-85
2022/11/24 05:06:15;;;;;;;0.00;0.00;;;;;;;;;;4994756;28;20038;-85
2022/11/24 05:08:41;;;;;;;0.00;0.00;;;;;;;;;;4994801;28;20126;-85
2022/11/24 05:11:07;;;;;;;0.00;0.00;;;;;;;;;;4994674;28;20061;-87
2022/11/24 05:13:33;;;;;;;0.00;0.00;;;;;;;;;;4994770;28;20486;-85
2022/11/24 05:16:00;;;;;;;0.00;0.00;;;;;;;;;;4994524;28;20093;-86
2022/11/24 05:18:26;;;;;;;0.00;0.00;;;;;;;;;;4994465;28;20066;-86
2022/11/24 05:20:52;;;;;;;0.00;0.00;;;;;;;;;;4994828;28;20042;-85
2022/11/24 05:23:18;;;;;;;0.00;0.00;;;;;;;;;;4994274;28;20129;-85
2022/11/24 05:25:44;;;;;;;0.00;0.00;;;;;;;;;;4994381;28;20121;-85
2022/11/24 05:28:10;;;;;;;0.00;0.00;;;;;;;;;;4978101;28;20047;-84
2022/11/24 05:30:37;;;;;;;0.00;0.00;;;;;;;;;;4994292;28;20125;-85
2022/11/24 05:33:17;;;;;;;0.00;0.00;;;;;;;;;;4994147;28;20038;-84
2022/11/24 05:35:47;;;;;;;0.00;0.00;;;;;;;;;;4978039;28;20049;-85
2022/11/24 05:38:14;;;;;;;0.00;0.00;;;;;;;;;;4993901;28;20077;-84
2022/11/24 05:40:40;;;;;;;0.00;0.00;;;;;;;;;;4978112;28;20137;-84
2022/11/24 05:43:10;;;;;;;0.00;0.00;;;;;;;;;;4994154;28;20192;-84
2022/11/24 05:45:35;;;;;;;0.00;0.00;;;;;;;;;;4994355;28;20038;-84
2022/11/24 05:48:06;;;;;;;0.00;0.00;;;;;;;;;;4994013;28;20180;-85
2022/11/24 05:50:32;;;;;;;0.00;0.00;;;;;;;;;;4993865;28;20050;-85
2022/11/24 05:53:01;;;;;;;0.00;0.00;;;;;;;;;;4977694;28;20042;-84
2022/11/24 05:55:27;;;;;;;0.00;0.00;;;;;;;;;;4993905;28;20042;-85
2022/11/24 05:58:00;;;;;;;0.00;0.00;;;;;;;;;;4993364;28;20061;-85
2022/11/24 06:00:27;;;;;;;0.00;0.00;;;;;;;;;;4993860;28;20051;-84
2022/11/24 06:02:53;;;;;;;0.00;0.00;;;;;;;;;;4977369;28;20046;-84
2022/11/24 06:05:19;;;;;;;0.00;0.00;;;;;;;;;;4993967;28;20064;-84
2022/11/24 06:07:45;;;;;;;0.00;0.00;;;;;;;;;;4993564;28;20483;-84
2022/11/24 06:10:11;;;;;;;0.00;0.00;;;;;;;;;;4993463;28;20045;-85
2022/11/24 06:12:37;;;;;;;0.00;0.00;;;;;;;;;;4993430;28;20439;-85
2022/11/24 06:15:03;;;;;;;0.00;0.00;;;;;;;;;;4992784;28;20042;-84
2022/11/24 06:17:29;;;;;;;0.00;0.00;;;;;;;;;;4993093;28;20407;-85
2022/11/24 06:19:55;;;;;;;0.00;0.00;;;;;;;;;;4993411;28;20046;-85
2022/11/24 06:22:21;;;;;;;0.00;0.00;;;;;;;;;;4993056;28;20038;-85
2022/11/24 06:24:49;;;;;;;0.00;0.00;;;;;;;;;;4977049;28;20049;-85
2022/11/24 06:27:15;;;;;;;0.00;0.00;;;;;;;;;;4993147;28;20121;-85
2022/11/24 06:29:41;;;;;;;0.00;0.00;;;;;;;;;;4976955;28;20046;-85
2022/11/24 06:32:07;;;;;;;0.00;0.00;;;;;;;;;;4992996;28;20050;-85
2022/11/24 06:34:33;;;;;;;0.00;0.00;;;;;;;;;;4993093;28;20125;-84
2022/11/24 06:36:59;;;;;;;0.00;0.00;;;;;;;;;;4993320;28;20046;-85
2022/11/24 06:39:25;;;;;;;0.00;0.00;;;;;;;;;;4993070;28;20512;-86
2022/11/24 06:41:51;;;;;;;0.00;0.00;;;;;;;;;;4992753;28;20042;-86
2022/11/24 06:44:17;;;;;;;0.00;0.00;;;;;;;;;;4992629;28;20046;-84
2022/11/24 06:46:43;;;;;;;0.00;0.00;;;;;;;;;;4976514;28;20141;-85
2022/11/24 06:49:09;;;;;;;0.00;0.00;;;;;;;;;;4975226;28;20137;-85
2022/11/24 06:51:35;;;;;;;0.00;0.00;;;;;;;;;;4973389;28;20106;-84
2022/11/24 06:54:02;;;;;;;0.00;0.00;;;;;;;;;;4973134;28;20046;-84
2022/11/24 06:56:28;;;;;;;0.00;0.00;;;;;;;;;;4973246;28;20087;-85
2022/11/24 06:58:54;;;;;;;0.00;0.00;;;;;;;;;;4972689;28;20055;-85
2022/11/24 07:01:25;;;;;;;0.00;0.00;;;;;;;;;;4973533;28;20047;-84
2022/11/24 07:03:52;;;;;;;0.00;0.00;;;;;;;;;;4973123;28;20496;-85
2022/11/24 07:06:19;;;;;;;0.00;0.00;;;;;;;;;;4957223;28;20051;-84
2022/11/24 07:08:44;;;;;;;0.00;0.00;;;;;;;;;;4972804;28;20093;-86
2022/11/24 07:11:14;;;;;;;0.00;0.00;;;;;;;;;;4957255;28;20129;-86
2022/11/24 07:13:40;;;;;;;0.00;0.00;;;;;;;;;;4972922;28;20166;-84
2022/11/24 07:16:11;;;;;;;0.00;0.00;;;;;;;;;;4972905;28;20043;-85
2022/11/24 07:18:36;;;;;;;0.00;0.00;;;;;;;;;;4972710;28;20078;-85
2022/11/24 07:21:07;;;;;;;0.00;0.00;;;;;;;;;;4957164;28;20128;-85
2022/11/24 07:23:33;;;;;;;0.00;0.00;;;;;;;;;;4956677;28;20511;-86
2022/11/24 07:26:01;;;;;;;0.00;0.00;;;;;;;;;;4956515;28;20452;-85
2022/11/24 07:28:27;;;;;;;0.00;0.00;;;;;;;;;;4972366;28;20061;-85
2022/11/24 07:30:52;;;;;;;0.00;0.00;;;;;;;;;;4972963;28;20540;-86
2022/11/24 07:33:23;;;;;;;0.00;0.00;;;;;;;;;;4973812;28;20058;-89
2022/11/24 07:35:49;;;;;;;0.00;0.00;;;;;;;;;;4958099;28;20041;-93
2022/11/24 07:38:15;;;;;;;0.00;0.00;;;;;;;;;;4973566;28;20034;-84
2022/11/24 07:40:42;;;;;;;0.00;0.00;;;;;;;;;;4972783;28;20038;-90
2022/11/24 07:43:08;;;;;;;0.00;0.00;;;;;;;;;;4972972;28;20084;-87
2022/11/24 07:45:34;;;;;;;0.00;0.00;;;;;;;;;;4973236;28;20063;-87
2022/11/24 07:48:00;;;;;;;0.00;0.00;;;;;;;;;;4972946;28;20118;-88
2022/11/24 07:50:26;;;;;;;0.00;0.00;;;;;;;;;;4957091;28;20075;-87
2022/11/24 07:52:52;;;;;;;0.00;0.00;;;;;;;;;;4972752;28;20073;-87
2022/11/24 07:55:18;;;;;;;0.00;0.00;;;;;;;;;;4972787;28;20101;-87
2022/11/24 07:57:44;;;;;;;0.00;0.00;;;;;;;;;;4972732;28;20400;-86
2022/11/24 08:00:11;;;;;;;0.00;0.00;;;;;;;;;;4972435;28;20125;-87
2022/11/24 08:02:37;;;;;;;0.00;0.00;;;;;;;;;;4964859;28;20162;-87
2022/11/24 08:05:03;;;;;;;0.00;0.00;;;;;;;;;;4960515;28;20103;-86
2022/11/24 08:07:29;;;;;;;0.00;0.00;;;;;;;;;;4972009;28;20184;-86
2022/11/24 08:09:55;;;;;;;0.00;0.00;;;;;;;;;;4952979;28;20134;-86
2022/11/24 08:12:21;;;;;;;0.00;0.00;;;;;;;;;;4961557;28;20527;-85
2022/11/24 08:14:48;;;;;;;0.00;0.00;;;;;;;;;;4966682;28;20038;-86
2022/11/24 08:17:14;;;;;;;0.00;0.00;;;;;;;;;;4964332;28;20035;-84
2022/11/24 08:19:40;;;;;;;0.00;0.00;;;;;;;;;;4953279;29;20551;-86
2022/11/24 08:22:06;;;;;;;0.00;0.00;;;;;;;;;;4953269;28;20043;-87
2022/11/24 08:24:32;;;;;;;0.00;0.00;;;;;;;;;;4976833;28;20464;-86
2022/11/24 08:26:58;;;;;;;0.00;0.00;;;;;;;;;;4993519;28;20101;-84
2022/11/24 08:29:28;;;;;;;0.00;0.00;;;;;;;;;;4977514;28;20114;-85
2022/11/24 08:31:57;;;;;;;0.00;0.00;;;;;;;;;;4976360;28;20043;-85
2022/11/24 08:34:24;;;;;;;0.00;0.00;;;;;;;;;;4991627;28;20484;-85
2022/11/24 08:36:50;;;;;;;0.00;0.00;;;;;;;;;;4975497;28;20042;-85
2022/11/24 08:39:17;;;;;;;0.00;0.00;;;;;;;;;;4992971;28;20045;-85
2022/11/24 08:41:43;;;;;;;0.00;0.00;;;;;;;;;;4979074;28;20038;-85
2022/11/24 08:44:10;;;;;;;0.00;0.00;;;;;;;;;;4995002;28;20057;-85
2022/11/24 08:46:36;;;;;;;0.00;0.00;;;;;;;;;;4996769;28;20173;-85
2022/11/24 08:49:04;;;;;;;0.00;0.00;;;;;;;;;;4994970;28;20046;-85
2022/11/24 08:51:33;;;;;;;0.00;0.00;;;;;;;;;;4979160;28;20507;-85
2022/11/24 08:54:00;;;;;;;0.00;0.00;;;;;;;;;;4996504;28;20399;-85
2022/11/24 08:56:29;;;;;;;0.00;0.00;;;;;;;;;;4993497;28;20037;-83
2022/11/24 08:58:56;;;;;;;0.00;0.00;;;;;;;;;;4972080;28;20057;-84
2022/11/24 09:01:22;;;;;;;0.00;0.00;;;;;;;;;;4983775;28;20399;-84
2022/11/24 09:03:49;;;;;;;0.00;0.00;;;;;;;;;;4972332;28;20047;-85
2022/11/24 09:06:15;;;;;;;0.00;0.00;;;;;;;;;;4975083;28;20050;-85
2022/11/24 09:08:41;;;;;;;0.00;0.00;;;;;;;;;;4958765;28;20090;-84
2022/11/24 09:11:14;;;;;;;0.00;0.00;;;;;;;;;;4975320;28;20046;-85
2022/11/24 09:13:41;;;;;;;0.00;0.00;;;;;;;;;;4975821;28;20046;-85
2022/11/24 09:16:09;;;;;;;0.00;0.00;;;;;;;;;;4975308;28;20046;-88
2022/11/24 09:18:35;;;;;;;0.00;0.00;;;;;;;;;;4975510;28;20097;-86
2022/11/24 09:21:11;;;;;;;0.00;0.00;;;;;;;;;;4958823;28;20129;-85
2022/11/24 09:23:38;;;;;;;0.00;0.00;;;;;;;;;;4975210;28;20129;-84
2022/11/24 09:26:08;;;;;;;0.00;0.00;;;;;;;;;;4974543;28;20043;-85
2022/11/24 09:28:34;;;;;;;0.00;0.00;;;;;;;;;;4974938;28;20047;-84
2022/11/24 09:31:04;;;;;;;0.00;0.00;;;;;;;;;;4975984;28;20043;-85
2022/11/24 09:33:30;;;;;;;0.00;0.00;;;;;;;;;;4959075;28;20054;-84
2022/11/24 09:35:56;;;;;;;0.00;0.00;;;;;;;;;;4974539;28;20130;-84
2022/11/24 09:38:22;;;;;;;0.00;0.00;;;;;;;;;;4974749;28;20113;-84
2022/11/24 09:40:49;;;;;;;0.00;0.00;;;;;;;;;;4974822;28;20050;-84
2022/11/24 09:43:27;;;;;;;0.00;0.00;;;;;;;;;;4975035;28;20057;-84
2022/11/24 09:46:09;;;;;;;0.00;0.00;;;;;;;;;;4974654;28;20203;-84
2022/11/24 09:48:40;;;;;;;0.00;0.00;;;;;;;;;;4975941;28;20089;-84
2022/11/24 09:51:09;;;;;;;0.00;0.00;;;;;;;;;;4974154;28;20039;-84
2022/11/24 09:53:37;;;;;;;0.00;0.00;;;;;;;;;;4958415;28;20042;-84
2022/11/24 09:56:19;;;;;;;0.00;0.00;;;;;;;;;;4958258;28;20070;-84
2022/11/24 09:58:50;;;;;;;0.00;0.00;;;;;;;;;;4958228;28;20059;-84
2022/11/24 10:01:18;;;;;;;0.00;0.00;;;;;;;;;;4974293;28;20051;-85
2022/11/24 10:03:46;;;;;;;0.00;0.00;;;;;;;;;;4974310;28;20050;-85
2022/11/24 10:06:21;;;;;;;0.00;0.00;;;;;;;;;;4974427;28;20117;-85
2022/11/24 10:09:02;;;;;;;0.10;0.10;;;;;;;;;;4974183;28;20046;-84
2022/11/24 10:11:51;;;;;;;0.00;0.00;;;;;;;;;;4974167;28;20081;-84
2022/11/24 10:14:41;;;;;;;0.00;0.00;;;;;;;;;;4974235;28;20053;-85
2022/11/24 10:17:07;;;;;;;0.00;0.00;;;;;;;;;;4973307;28;20500;-85
2022/11/24 10:19:48;;;;;;;0.00;0.00;;;;;;;;;;4973699;28;20053;-84
2022/11/24 10:22:17;;;;;;;0.00;0.00;;;;;;;;;;4973840;28;20045;-84
2022/11/24 10:25:01;;;;;;;0.00;0.00;;;;;;;;;;4973795;28;20133;-84
2022/11/24 10:27:34;;;;;;;0.00;0.00;;;;;;;;;;4973804;28;20043;-85
2022/11/24 10:30:00;;;;;;;0.00;0.00;;;;;;;;;;4973632;28;20047;-85
2022/11/24 10:32:31;;;;;;;0.00;0.00;;;;;;;;;;4973784;28;20049;-84
2022/11/24 10:35:00;;;;;;;0.00;0.00;;;;;;;;;;4973614;28;20047;-84
2022/11/24 10:37:29;;;;;;;0.00;0.00;;;;;;;;;;4957658;28;20043;-84
2022/11/24 10:40:14;;;;;;;0.00;0.00;;;;;;;;;;4973620;28;20046;-84
2022/11/24 10:42:41;;;;;;;0.00;0.00;;;;;;;;;;4973818;28;20046;-84
2022/11/24 10:45:10;;;;;;;0.00;0.00;;;;;;;;;;4957249;28;20089;-84
2022/11/24 10:47:37;;;;;;;0.00;0.00;;;;;;;;;;4973684;28;20051;-84
2022/11/24 10:50:18;;;;;;;0.00;0.00;;;;;;;;;;4973181;28;20126;-84
2022/11/24 10:52:47;;;;;;;0.00;0.00;;;;;;;;;;4957425;28;20093;-85
2022/11/24 10:55:13;;;;;;;0.00;0.00;;;;;;;;;;4973393;28;20030;-85
2022/11/24 10:57:40;;;;;;;0.00;0.00;;;;;;;;;;4973314;28;20549;-86
2022/11/24 11:00:19;;;;;;;0.00;0.00;;;;;;;;;;4973019;28;20420;-86
2022/11/24 11:02:46;;;;;;;0.00;0.00;;;;;;;;;;4956686;28;20395;-86
2022/11/24 11:05:25;;;;;;;0.00;0.00;;;;;;;;;;4957222;28;20385;-85
2022/11/24 11:08:09;;;;;;;0.00;0.00;;;;;;;;;;4973310;28;20042;-85
2022/11/24 11:10:35;;;;;;;0.00;0.00;;;;;;;;;;4973094;28;20105;-85
2022/11/24 11:13:19;;;;;;;0.00;0.00;;;;;;;;;;4973483;28;20039;-85
2022/11/24 11:15:45;;;;;;;0.00;0.00;;;;;;;;;;4973014;28;20543;-86
2022/11/24 11:18:15;;;;;;;0.00;0.00;;;;;;;;;;4973184;28;20042;-86
2022/11/24 11:20:48;;;;;;;0.00;0.00;;;;;;;;;;4972911;28;20038;-86
2022/11/24 11:23:19;;;;;;;0.00;0.00;;;;;;;;;;4973090;28;20070;-86
2022/11/24 11:25:45;;;;;;;0.00;0.00;;;;;;;;;;4957131;28;20484;-85
2022/11/24 11:28:17;;;;;;;0.00;0.00;;;;;;;;;;4972880;28;20046;-86
2022/11/24 11:31:01;;;;;;;0.00;0.00;;;;;;;;;;4972588;28;20089;-84
2022/11/24 11:33:35;;;;;;;0.00;0.00;;;;;;;;;;4958205;28;20039;-86
2022/11/24 11:36:04;;;;;;;0.00;0.00;;;;;;;;;;4956493;28;20038;-86
2022/11/24 11:38:33;;;;;;;0.00;0.00;;;;;;;;;;4973113;28;20075;-85
2022/11/24 11:41:01;;;;;;;0.00;0.00;;;;;;;;;;4972490;28;20046;-87
2022/11/24 11:43:29;;;;;;;0.00;0.00;;;;;;;;;;4956988;28;20404;-86
2022/11/24 11:46:09;;;;;;;0.00;0.00;;;;;;;;;;4956974;28;20104;-86
2022/11/24 11:48:37;;;;;;;0.00;0.00;;;;;;;;;;4956843;28;20051;-86
2022/11/24 11:51:10;;;;;;;0.00;0.00;;;;;;;;;;4972615;28;20447;-86
2022/11/24 11:53:59;;;;;;;0.00;0.00;;;;;;;;;;4956934;28;20404;-86
2022/11/24 11:56:25;;;;;;;0.00;0.00;;;;;;;;;;4946875;28;20109;-86
2022/11/24 11:59:05;;;;;;;0.00;0.00;;;;;;;;;;4972873;28;20054;-87
2022/11/24 12:01:41;;;;;;;0.00;0.00;;;;;;;;;;4972874;28;20051;-87
2022/11/24 12:04:07;;;;;;;0.00;0.00;;;;;;;;;;4973316;28;20480;-86
2022/11/24 12:06:36;;;;;;;0.00;0.00;;;;;;;;;;4972515;28;20054;-86
2022/11/24 12:09:05;;;;;;;0.00;0.00;;;;;;;;;;4956423;28;20178;-86
2022/11/24 12:11:36;;;;;;;0.00;0.00;;;;;;;;;;4956222;28;20093;-86
2022/11/24 12:14:02;;;;;;;0.00;0.00;;;;;;;;;;4974723;28;20049;-88
2022/11/24 12:16:36;;;;;;;0.00;0.00;;;;;;;;;;4976348;28;20117;-86
2022/11/24 12:19:35;;;;;;;0.00;0.00;;;;;;;;;;4960252;28;20049;-85
2022/11/24 12:22:22;;;;;;;0.00;0.00;;;;;;;;;;4934484;28;20137;-87
2022/11/24 12:24:51;;;;;;;0.00;0.00;;;;;;;;;;4960376;28;20070;-85
2022/11/24 12:27:20;;;;;;;0.00;0.00;;;;;;;;;;4977811;28;20066;-85
2022/11/24 12:29:58;;;;;;;0.00;0.00;;;;;;;;;;4975932;28;20496;-86
2022/11/24 12:32:24;;;;;;;0.00;0.00;;;;;;;;;;4975853;28;20049;-86
2022/11/24 12:34:54;;;;;;;0.00;0.00;;;;;;;;;;4976148;28;20129;-86
2022/11/24 12:37:40;;;;;;;0.00;0.00;;;;;;;;;;4976086;28;20129;-86
2022/11/24 12:40:21;;;;;;;0.00;0.00;;;;;;;;;;4976017;28;20047;-85
2022/11/24 12:42:47;;;;;;;0.00;0.00;;;;;;;;;;4975635;28;20046;-86
2022/11/24 12:45:17;;;;;;;0.00;0.00;;;;;;;;;;4975792;28;20427;-86
2022/11/24 12:47:46;;;;;;;0.00;0.00;;;;;;;;;;4975457;28;20042;-87
2022/11/24 12:50:15;;;;;;;0.00;0.00;;;;;;;;;;4975627;28;20049;-86
2022/11/24 12:52:41;;;;;;;0.00;0.00;;;;;;;;;;4975582;28;20035;-86
2022/11/24 12:55:12;;;;;;;0.00;0.00;;;;;;;;;;4975544;28;20061;-86
2022/11/24 12:57:51;;;;;;;0.00;0.00;;;;;;;;;;4959552;28;20121;-87
2022/11/24 13:00:22;;;;;;;0.00;0.00;;;;;;;;;;4975577;28;20113;-87
2022/11/24 13:02:51;;;;;;;0.00;0.00;;;;;;;;;;4975330;28;20039;-86
2022/11/24 13:05:22;;;;;;;0.00;0.00;;;;;;;;;;4975638;28;20046;-85
2022/11/24 13:07:50;;;;;;;0.00;0.00;;;;;;;;;;4975502;28;20330;-89
2022/11/24 13:10:25;;;;;;;0.00;0.00;;;;;;;;;;4972011;28;20046;-86
2022/11/24 13:13:03;;;;;;;0.00;0.00;;;;;;;;;;4996563;28;20070;-86
2022/11/24 13:15:30;;;;;;;0.00;0.00;;;;;;;;;;4978632;28;20046;-85
2022/11/24 13:17:56;;;;;;;0.00;0.00;;;;;;;;;;4995412;28;20452;-85
2022/11/24 13:20:30;;;;;;;0.00;0.00;;;;;;;;;;4980050;28;20050;-86
2022/11/24 13:22:58;;;;;;;0.00;0.00;;;;;;;;;;4994571;28;20046;-87
2022/11/24 13:25:32;;;;;;;0.00;0.00;;;;;;;;;;4979208;28;20106;-87
2022/11/24 13:27:59;;;;;;;0.00;0.00;;;;;;;;;;4996364;28;20125;-85
2022/11/24 13:30:31;;;;;;;0.00;0.00;;;;;;;;;;4979552;28;20046;-86
2022/11/24 13:33:17;;;;;;;0.00;0.00;;;;;;;;;;4994534;28;20082;-86
2022/11/24 13:36:02;;;;;;;0.00;0.00;;;;;;;;;;4994215;28;20038;-86
2022/11/24 13:38:57;;;;;;;0.00;0.00;;;;;;;;;;4993872;28;20124;-86
2022/11/24 13:41:33;;;;;;;0.00;0.00;;;;;;;;;;4978009;28;20072;-86
2022/11/24 13:44:14;;;;;;;0.00;0.00;;;;;;;;;;4994122;28;20045;-86
2022/11/24 13:47:00;;;;;;;0.00;0.00;;;;;;;;;;4993615;28;20065;-86
2022/11/24 13:49:38;;;;;;;0.00;0.00;;;;;;;;;;4994046;28;20038;-86
2022/11/24 13:52:23;;;;;;;0.00;0.00;;;;;;;;;;4993779;28;20056;-87
2022/11/24 13:54:49;;;;;;;0.00;0.00;;;;;;;;;;4994016;28;20046;-86
2022/11/24 13:57:35;;;;;;;0.00;0.00;;;;;;;;;;4993568;28;20365;-87
2022/11/24 14:00:01;;;;;;;0.00;0.00;;;;;;;;;;4993742;28;20500;-86
2022/11/24 14:02:29;;;;;;;0.00;0.00;;;;;;;;;;4993606;28;20042;-86
2022/11/24 14:04:55;;;;;;;0.00;0.00;;;;;;;;;;4993879;28;20137;-86
2022/11/24 14:07:21;;;;;;;0.00;0.00;;;;;;;;;;4977398;28;20048;-86
2022/11/24 14:09:51;;;;;;;0.00;0.00;;;;;;;;;;4993722;28;20150;-86
2022/11/24 14:12:19;;;;;;;0.00;0.00;;;;;;;;;;4977568;28;20522;-86
2022/11/24 14:14:46;;;;;;;0.00;0.00;;;;;;;;;;4993710;28;20403;-87
2022/11/24 14:17:22;;;;;;;0.00;0.00;;;;;;;;;;4976952;28;20042;-86
2022/11/24 14:19:53;;;;;;;0.00;0.00;;;;;;;;;;4993489;28;20132;-87
2022/11/24 14:22:19;;;;;;;0.00;0.00;;;;;;;;;;4993398;28;20048;-86
2022/11/24 14:24:46;;;;;;;0.00;0.00;;;;;;;;;;4993351;28;20038;-86
2022/11/24 14:27:16;;;;;;;0.00;0.00;;;;;;;;;;4976773;28;20089;-86
2022/11/24 14:29:56;;;;;;;0.00;0.00;;;;;;;;;;4993273;28;20093;-86
2022/11/24 14:32:22;;;;;;;0.00;0.00;;;;;;;;;;4976964;28;20046;-86
2022/11/24 14:34:50;;;;;;;0.00;0.00;;;;;;;;;;4993432;28;20041;-85
2022/11/24 14:37:16;;;;;;;0.00;0.00;;;;;;;;;;4975783;28;20042;-87
2022/11/24 14:39:42;;;;;;;0.00;0.00;;;;;;;;;;4993389;28;20141;-87
2022/11/24 14:42:19;;;;;;;0.00;0.00;;;;;;;;;;4992856;28;20053;-86
2022/11/24 14:44:51;;;;;;;0.00;0.00;;;;;;;;;;4993785;28;20492;-86
2022/11/24 14:47:21;;;;;;;0.00;0.00;;;;;;;;;;4993460;28;20046;-86
2022/11/24 14:49:47;;;;;;;0.00;0.00;;;;;;;;;;4993215;28;20121;-87
2022/11/24 14:52:15;;;;;;;0.00;0.00;;;;;;;;;;4992791;28;20046;-87
2022/11/24 14:54:49;;;;;;;0.00;0.00;;;;;;;;;;4977074;28;20039;-85
2022/11/24 14:57:41;;;;;;;0.00;0.00;;;;;;;;;;4976526;28;20181;-86